createdAt,value
2018-07-04T00:00:50.822Z,18.69
2018-07-04T00:01:50.810Z,18.72
2018-07-04T00:02:50.799Z,18.67
2018-07-04T00:03:50.800Z,18.63
2018-07-04T00:04:50.790Z,18.58
2018-07-04T00:05:50.803Z,18.65
2018-07-04T00:06:50.766Z,18.55
2018-07-04T00:07:50.740Z,18.63
2018-07-04T00:08:50.734Z,18.62
2018-07-04T00:09:50.717Z,18.65
2018-07-04T00:10:50.727Z,18.66
2018-07-04T00:11:50.697Z,18.57
2018-07-04T00:12:50.706Z,18.58
2018-07-04T00:13:50.673Z,18.60
2018-07-04T00:14:50.663Z,18.58
2018-07-04T00:15:50.699Z,18.54
2018-07-04T00:16:50.686Z,18.67
2018-07-04T00:17:50.629Z,18.55
2018-07-04T00:18:50.620Z,18.57
2018-07-04T00:19:50.604Z,18.48
2018-07-04T00:20:50.610Z,18.50
2018-07-04T00:21:50.583Z,18.44
2018-07-04T00:22:50.577Z,18.45
2018-07-04T00:23:50.599Z,18.44
2018-07-04T00:24:50.549Z,18.44
2018-07-04T00:25:50.559Z,18.47
2018-07-04T00:26:50.526Z,18.36
2018-07-04T00:27:50.530Z,18.45
2018-07-04T00:28:50.503Z,18.44
2018-07-04T00:29:50.493Z,18.47
2018-07-04T00:30:50.496Z,18.39
2018-07-04T00:31:50.472Z,18.27
2018-07-04T00:32:50.462Z,18.26
2018-07-04T00:33:50.450Z,18.30
2018-07-04T00:34:50.440Z,18.25
2018-07-04T00:35:50.444Z,18.35
2018-07-04T00:36:50.429Z,18.33
2018-07-04T00:37:50.406Z,18.29
2018-07-04T00:38:50.408Z,18.25
2018-07-04T00:39:50.389Z,18.23
2018-07-04T00:40:50.373Z,18.21
2018-07-04T00:41:50.371Z,18.17
2018-07-04T00:42:50.351Z,18.20
2018-07-04T00:43:50.337Z,18.30
2018-07-04T00:44:50.328Z,18.27
2018-07-04T00:45:50.332Z,18.25
2018-07-04T00:46:50.324Z,18.15
2018-07-04T00:47:50.297Z,18.15
2018-07-04T00:48:50.284Z,18.14
2018-07-04T00:49:50.272Z,18.08
2018-07-04T00:50:50.260Z,18.17
2018-07-04T00:51:50.289Z,18.18
2018-07-04T00:52:50.238Z,18.25
2018-07-04T00:53:50.230Z,18.20
2018-07-04T00:54:50.216Z,18.21
2018-07-04T00:55:50.225Z,18.15
2018-07-04T00:56:50.193Z,18.15
2018-07-04T00:57:50.197Z,18.15
2018-07-04T00:58:50.172Z,18.03
2018-07-04T00:59:50.174Z,18.03
2018-07-04T01:00:50.151Z,18.05
2018-07-04T01:01:50.153Z,17.93
2018-07-04T01:02:50.144Z,18.00
2018-07-04T01:03:50.117Z,17.95
2018-07-04T01:04:50.125Z,17.96
2018-07-04T01:05:50.126Z,17.96
2018-07-04T01:06:50.090Z,17.93
2018-07-04T01:07:50.075Z,17.96
2018-07-04T01:08:50.067Z,17.92
2018-07-04T01:09:50.058Z,18.02
2018-07-04T01:10:50.055Z,17.93
2018-07-04T01:11:50.042Z,17.87
2018-07-04T01:12:50.037Z,17.84
2018-07-04T01:13:50.012Z,17.93
2018-07-04T01:14:50.004Z,17.92
2018-07-04T01:15:49.991Z,17.84
2018-07-04T01:16:49.983Z,17.92
2018-07-04T01:17:49.986Z,17.95
2018-07-04T01:18:49.959Z,17.95
2018-07-04T01:19:49.949Z,17.93
2018-07-04T01:20:49.949Z,17.90
2018-07-04T01:21:49.931Z,17.84
2018-07-04T01:22:49.913Z,17.81
2018-07-04T01:23:49.905Z,17.77
2018-07-04T01:24:49.891Z,17.74
2018-07-04T01:25:49.920Z,17.86
2018-07-04T01:26:49.870Z,17.81
2018-07-04T01:27:49.864Z,17.86
2018-07-04T01:28:49.860Z,17.86
2018-07-04T01:29:49.839Z,17.95
2018-07-04T01:30:49.827Z,17.92
2018-07-04T01:31:49.831Z,17.82
2018-07-04T01:32:49.802Z,17.86
2018-07-04T01:33:49.796Z,17.82
2018-07-04T01:34:49.784Z,17.75
2018-07-04T01:35:49.772Z,17.75
2018-07-04T01:36:49.793Z,17.81
2018-07-04T01:37:49.747Z,17.77
2018-07-04T01:38:49.741Z,17.74
2018-07-04T01:39:49.731Z,17.70
2018-07-04T01:40:49.721Z,17.71
2018-07-04T01:41:49.708Z,17.64
2018-07-04T01:42:49.764Z,17.62
2018-07-04T01:43:49.684Z,17.70
2018-07-04T01:44:49.694Z,17.68
2018-07-04T01:45:49.665Z,17.63
2018-07-04T01:46:49.654Z,17.68
2018-07-04T01:47:49.640Z,17.68
2018-07-04T01:48:49.657Z,17.66
2018-07-04T01:49:49.617Z,17.59
2018-07-04T01:50:49.610Z,17.63
2018-07-04T01:51:49.599Z,17.59
2018-07-04T01:52:49.591Z,17.70
2018-07-04T01:53:49.580Z,17.62
2018-07-04T01:54:49.583Z,17.58
2018-07-04T01:55:49.558Z,17.64
2018-07-04T01:56:49.549Z,17.62
2018-07-04T01:57:49.554Z,17.66
2018-07-04T01:58:49.541Z,17.59
2018-07-04T01:59:49.518Z,17.66
2018-07-04T02:00:49.508Z,17.66
2018-07-04T02:01:49.495Z,17.62
2018-07-04T02:02:49.484Z,17.63
2018-07-04T02:03:49.505Z,17.59
2018-07-04T02:04:49.461Z,17.71
2018-07-04T02:05:49.491Z,17.59
2018-07-04T02:06:49.440Z,17.62
2018-07-04T02:07:49.434Z,17.62
2018-07-04T02:08:49.431Z,17.59
2018-07-04T02:09:49.444Z,17.58
2018-07-04T02:10:49.397Z,17.56
2018-07-04T02:11:49.419Z,17.44
2018-07-04T02:12:49.375Z,17.55
2018-07-04T02:13:49.367Z,17.46
2018-07-04T02:14:49.381Z,17.44
2018-07-04T02:15:49.341Z,17.41
2018-07-04T02:16:49.334Z,17.49
2018-07-04T02:17:49.331Z,17.38
2018-07-04T02:18:49.312Z,17.31
2018-07-04T02:19:49.299Z,17.15
2018-07-04T02:20:49.311Z,17.18
2018-07-04T02:21:49.277Z,17.23
2018-07-04T02:22:49.269Z,17.12
2018-07-04T02:23:49.260Z,17.14
2018-07-04T02:24:49.246Z,17.14
2018-07-04T02:25:49.237Z,17.23
2018-07-04T02:26:49.311Z,17.22
2018-07-04T02:27:49.215Z,17.22
2018-07-04T02:28:49.239Z,17.23
2018-07-04T02:29:49.194Z,17.19
2018-07-04T02:30:49.180Z,17.19
2018-07-04T02:31:49.196Z,17.15
2018-07-04T02:32:49.180Z,17.16
2018-07-04T02:33:49.149Z,17.15
2018-07-04T02:34:49.147Z,17.14
2018-07-04T02:35:49.129Z,17.14
2018-07-04T02:36:49.134Z,17.14
2018-07-04T02:37:49.109Z,17.14
2018-07-04T02:38:49.117Z,17.14
2018-07-04T02:39:49.084Z,17.18
2018-07-04T02:40:49.108Z,17.14
2018-07-04T02:41:49.061Z,17.14
2018-07-04T02:42:49.050Z,17.14
2018-07-04T02:43:49.037Z,17.04
2018-07-04T02:44:49.066Z,17.16
2018-07-04T02:45:49.015Z,17.06
2018-07-04T02:46:49.019Z,17.07
2018-07-04T02:47:48.997Z,17.04
2018-07-04T02:48:49.045Z,17.03
2018-07-04T02:49:48.991Z,17.04
2018-07-04T02:50:48.965Z,17.03
2018-07-04T02:51:48.953Z,17.00
2018-07-04T02:52:48.960Z,17.06
2018-07-04T02:53:48.952Z,17.06
2018-07-04T02:54:48.923Z,17.14
2018-07-04T02:55:48.912Z,17.11
2018-07-04T02:56:48.900Z,17.08
2018-07-04T02:57:48.890Z,17.15
2018-07-04T02:58:48.884Z,17.07
2018-07-04T02:59:48.880Z,17.11
2018-07-04T03:00:48.903Z,17.08
2018-07-04T03:01:48.847Z,17.08
2018-07-04T03:02:48.837Z,17.07
2018-07-04T03:03:48.827Z,17.00
2018-07-04T03:04:48.825Z,16.98
2018-07-04T03:05:48.817Z,17.07
2018-07-04T03:06:48.791Z,17.08
2018-07-04T03:07:48.785Z,17.15
2018-07-04T03:08:48.772Z,17.14
2018-07-04T03:09:48.759Z,17.07
2018-07-04T03:10:48.764Z,17.08
2018-07-04T03:11:48.747Z,17.12
2018-07-04T03:12:48.726Z,17.08
2018-07-04T03:13:48.717Z,17.11
2018-07-04T03:14:48.707Z,17.07
2018-07-04T03:15:48.709Z,17.06
2018-07-04T03:16:48.684Z,17.07
2018-07-04T03:17:48.691Z,17.14
2018-07-04T03:18:48.670Z,17.11
2018-07-04T03:19:48.652Z,17.08
2018-07-04T03:20:48.681Z,17.11
2018-07-04T03:21:48.630Z,17.11
2018-07-04T03:22:48.622Z,17.12
2018-07-04T03:23:48.610Z,17.11
2018-07-04T03:24:48.600Z,17.11
2018-07-04T03:25:48.587Z,17.08
2018-07-04T03:26:48.591Z,17.11
2018-07-04T03:27:48.572Z,17.08
2018-07-04T03:28:48.570Z,17.15
2018-07-04T03:29:48.545Z,17.07
2018-07-04T03:30:48.540Z,17.11
2018-07-04T03:31:48.552Z,17.01
2018-07-04T03:32:48.529Z,17.04
2018-07-04T03:33:48.502Z,17.04
2018-07-04T03:34:48.494Z,16.93
2018-07-04T03:35:48.484Z,16.94
2018-07-04T03:36:48.487Z,16.89
2018-07-04T03:37:48.480Z,17.03
2018-07-04T03:38:48.450Z,16.93
2018-07-04T03:39:48.439Z,17.01
2018-07-04T03:40:48.437Z,16.91
2018-07-04T03:41:48.434Z,16.98
2018-07-04T03:42:48.458Z,16.91
2018-07-04T03:43:48.401Z,16.98
2018-07-04T03:44:48.390Z,17.11
2018-07-04T03:45:48.379Z,17.07
2018-07-04T03:46:48.367Z,17.06
2018-07-04T03:47:48.360Z,17.06
2018-07-04T03:48:48.378Z,16.97
2018-07-04T03:49:48.390Z,17.06
2018-07-04T03:50:48.326Z,17.04
2018-07-04T03:51:48.323Z,17.04
2018-07-04T03:52:48.308Z,17.01
2018-07-04T03:53:48.300Z,17.03
2018-07-04T03:54:48.297Z,17.07
2018-07-04T03:55:48.273Z,17.03
2018-07-04T03:56:48.267Z,17.03
2018-07-04T03:57:48.262Z,17.06
2018-07-04T03:58:48.257Z,17.04
2018-07-04T03:59:48.243Z,16.93
2018-07-04T04:00:48.234Z,17.03
2018-07-04T04:01:48.215Z,17.04
2018-07-04T04:02:48.223Z,17.11
2018-07-04T04:03:48.195Z,17.14
2018-07-04T04:04:48.192Z,17.08
2018-07-04T04:05:48.167Z,17.14
2018-07-04T04:06:48.183Z,17.16
2018-07-04T04:07:48.194Z,17.18
2018-07-04T04:08:48.137Z,17.15
2018-07-04T04:09:48.138Z,17.22
2018-07-04T04:10:48.127Z,17.19
2018-07-04T04:11:48.110Z,17.15
2018-07-04T04:12:48.094Z,17.18
2018-07-04T04:13:48.084Z,17.23
2018-07-04T04:14:48.082Z,17.22
2018-07-04T04:15:48.081Z,17.28
2018-07-04T04:16:48.050Z,17.28
2018-07-04T04:17:48.042Z,17.25
2018-07-04T04:18:48.031Z,17.34
2018-07-04T04:19:48.069Z,17.34
2018-07-04T04:20:48.008Z,17.34
2018-07-04T04:21:48.012Z,17.40
2018-07-04T04:22:47.994Z,17.38
2018-07-04T04:23:47.975Z,17.46
2018-07-04T04:24:47.967Z,17.46
2018-07-04T04:25:47.977Z,17.55
2018-07-04T04:26:47.967Z,17.64
2018-07-04T04:27:47.935Z,17.58
2018-07-04T04:28:47.923Z,17.62
2018-07-04T04:29:47.936Z,17.70
2018-07-04T04:30:47.952Z,17.71
2018-07-04T04:31:47.924Z,17.77
2018-07-04T04:32:47.880Z,17.78
2018-07-04T04:33:47.871Z,17.71
2018-07-04T04:34:47.853Z,17.79
2018-07-04T04:35:47.846Z,17.77
2018-07-04T04:36:47.832Z,17.84
2018-07-04T04:37:47.836Z,17.86
2018-07-04T04:38:47.810Z,17.86
2018-07-04T04:39:47.858Z,17.89
2018-07-04T04:40:47.787Z,17.96
2018-07-04T04:41:47.779Z,17.95
2018-07-04T04:42:47.780Z,17.93
2018-07-04T04:43:47.754Z,17.95
2018-07-04T04:44:47.758Z,17.95
2018-07-04T04:45:47.754Z,17.99
2018-07-04T04:46:47.730Z,17.96
2018-07-04T04:47:47.711Z,18.03
2018-07-04T04:48:47.715Z,18.11
2018-07-04T04:49:47.687Z,18.17
2018-07-04T04:50:47.698Z,18.17
2018-07-04T04:51:47.666Z,18.27
2018-07-04T04:52:47.674Z,18.18
2018-07-04T04:53:47.649Z,18.20
2018-07-04T04:54:47.706Z,18.29
2018-07-04T04:55:47.629Z,18.26
2018-07-04T04:56:47.633Z,18.27
2018-07-04T04:57:47.600Z,18.25
2018-07-04T04:58:47.589Z,18.33
2018-07-04T04:59:47.575Z,18.26
2018-07-04T05:00:47.566Z,18.29
2018-07-04T05:01:47.555Z,18.37
2018-07-04T05:02:47.573Z,18.42
2018-07-04T05:03:47.542Z,18.39
2018-07-04T05:04:47.577Z,18.36
2018-07-04T05:05:47.542Z,18.39
2018-07-04T05:06:47.517Z,18.44
2018-07-04T05:07:47.554Z,18.39
2018-07-04T05:08:47.477Z,18.45
2018-07-04T05:09:47.470Z,18.44
2018-07-04T05:10:47.520Z,18.52
2018-07-04T05:11:47.447Z,18.55
2018-07-04T05:12:47.438Z,18.58
2018-07-04T05:13:47.426Z,18.63
2018-07-04T05:14:47.458Z,18.65
2018-07-04T05:15:47.487Z,18.65
2018-07-04T05:16:47.389Z,18.67
2018-07-04T05:17:47.397Z,18.80
2018-07-04T05:18:47.371Z,18.73
2018-07-04T05:19:47.357Z,18.82
2018-07-04T05:20:47.362Z,18.85
2018-07-04T05:21:47.377Z,18.94
2018-07-04T05:22:47.374Z,18.90
2018-07-04T05:23:47.317Z,18.98
2018-07-04T05:24:47.307Z,18.95
2018-07-04T05:25:47.297Z,19.08
2018-07-04T05:26:47.286Z,19.00
2018-07-04T05:27:47.324Z,19.10
2018-07-04T05:28:47.297Z,19.13
2018-07-04T05:29:47.250Z,19.10
2018-07-04T05:30:47.243Z,19.18
2018-07-04T05:31:47.232Z,19.22
2018-07-04T05:32:47.221Z,19.29
2018-07-04T05:33:47.276Z,19.28
2018-07-04T05:34:47.200Z,19.28
2018-07-04T05:35:47.186Z,19.33
2018-07-04T05:36:47.179Z,19.43
2018-07-04T05:37:47.181Z,19.55
2018-07-04T05:38:47.165Z,19.63
2018-07-04T05:39:47.142Z,19.61
2018-07-04T05:40:47.145Z,19.63
2018-07-04T05:41:47.137Z,19.76
2018-07-04T05:42:47.112Z,19.76
2018-07-04T05:43:47.124Z,19.86
2018-07-04T05:44:47.089Z,19.88
2018-07-04T05:45:47.077Z,19.91
2018-07-04T05:46:47.071Z,19.88
2018-07-04T05:47:47.060Z,20.03
2018-07-04T05:48:47.047Z,20.11
2018-07-04T05:49:47.075Z,20.21
2018-07-04T05:50:47.025Z,20.29
2018-07-04T05:51:47.074Z,20.47
2018-07-04T05:52:47.004Z,20.48
2018-07-04T05:53:46.995Z,20.57
2018-07-04T05:54:46.985Z,20.77
2018-07-04T05:55:46.985Z,20.87
2018-07-04T05:56:46.959Z,20.99
2018-07-04T05:57:46.950Z,21.10
2018-07-04T05:58:46.939Z,21.27
2018-07-04T05:59:46.931Z,21.34
2018-07-04T06:00:46.974Z,21.49
2018-07-04T06:01:46.905Z,21.52
2018-07-04T06:02:46.934Z,21.43
2018-07-04T06:03:46.885Z,21.53
2018-07-04T06:04:46.874Z,21.46
2018-07-04T06:05:46.874Z,21.52
2018-07-04T06:06:46.909Z,21.59
2018-07-04T06:07:46.858Z,21.58
2018-07-04T06:08:46.833Z,21.72
2018-07-04T06:09:46.822Z,21.77
2018-07-04T06:10:46.865Z,21.74
2018-07-04T06:11:46.815Z,21.90
2018-07-04T06:12:46.809Z,22.00
2018-07-04T06:13:46.774Z,21.99
2018-07-04T06:14:46.767Z,21.98
2018-07-04T06:15:46.756Z,22.02
2018-07-04T06:16:46.747Z,22.02
2018-07-04T06:17:46.813Z,21.98
2018-07-04T06:18:46.735Z,22.09
2018-07-04T06:19:46.714Z,22.02
2018-07-04T06:20:46.700Z,22.00
2018-07-04T06:21:46.726Z,22.12
2018-07-04T06:22:46.681Z,22.18
2018-07-04T06:23:46.670Z,22.17
2018-07-04T06:24:46.710Z,22.21
2018-07-04T06:25:46.647Z,22.33
2018-07-04T06:26:46.636Z,22.51
2018-07-04T06:27:46.662Z,22.57
2018-07-04T06:28:46.616Z,22.77
2018-07-04T06:29:46.622Z,22.90
2018-07-04T06:30:46.616Z,23.04
2018-07-04T06:31:46.626Z,23.07
2018-07-04T06:32:46.588Z,23.10
2018-07-04T06:33:46.581Z,22.98
2018-07-04T06:34:46.551Z,23.10
2018-07-04T06:35:46.541Z,22.85
2018-07-04T06:36:46.530Z,22.91
2018-07-04T06:37:46.517Z,23.04
2018-07-04T06:38:46.509Z,22.90
2018-07-04T06:39:46.513Z,22.90
2018-07-04T06:40:46.482Z,22.92
2018-07-04T06:41:46.476Z,22.90
2018-07-04T06:42:46.467Z,22.97
2018-07-04T06:43:46.452Z,23.04
2018-07-04T06:44:46.447Z,23.02
2018-07-04T06:45:46.449Z,23.04
2018-07-04T06:46:46.436Z,23.28
2018-07-04T06:47:46.470Z,23.47
2018-07-04T06:48:46.399Z,23.57
2018-07-04T06:49:46.432Z,23.65
2018-07-04T06:50:46.381Z,23.61
2018-07-04T06:51:46.381Z,23.54
2018-07-04T06:52:46.356Z,23.68
2018-07-04T06:53:46.404Z,23.70
2018-07-04T06:54:46.336Z,23.76
2018-07-04T06:55:46.326Z,23.69
2018-07-04T06:56:46.325Z,24.02
2018-07-04T06:57:46.298Z,24.05
2018-07-04T06:58:46.317Z,24.13
2018-07-04T06:59:46.295Z,24.27
2018-07-04T07:00:46.267Z,24.30
2018-07-04T07:01:46.293Z,24.22
2018-07-04T07:02:46.284Z,24.34
2018-07-04T07:03:46.237Z,24.34
2018-07-04T07:04:46.255Z,24.30
2018-07-04T07:05:46.214Z,24.42
2018-07-04T07:06:46.203Z,24.52
2018-07-04T07:07:46.192Z,24.73
2018-07-04T07:08:46.243Z,24.95
2018-07-04T07:09:46.173Z,25.20
2018-07-04T07:10:46.166Z,25.39
2018-07-04T07:11:46.150Z,25.52
2018-07-04T07:12:46.169Z,25.80
2018-07-04T07:13:46.130Z,26.18
2018-07-04T07:14:46.165Z,26.57
2018-07-04T07:15:46.107Z,26.99
2018-07-04T07:16:46.096Z,27.47
2018-07-04T07:17:46.088Z,28.14
2018-07-04T07:18:46.092Z,28.44
2018-07-04T07:19:46.069Z,28.68
2018-07-04T07:20:46.060Z,29.16
2018-07-04T07:21:46.047Z,29.67
2018-07-04T07:22:46.053Z,30.08
2018-07-04T07:23:46.022Z,30.29
2018-07-04T07:24:46.012Z,30.47
2018-07-04T07:25:46.052Z,30.58
2018-07-04T07:26:45.997Z,30.80
2018-07-04T07:27:46.008Z,31.12
2018-07-04T07:28:45.987Z,31.13
2018-07-04T07:29:45.962Z,31.13
2018-07-04T07:30:45.950Z,31.14
2018-07-04T07:31:45.995Z,31.17
2018-07-04T07:32:45.947Z,31.39
2018-07-04T07:33:45.920Z,31.61
2018-07-04T07:34:45.923Z,31.72
2018-07-04T07:35:45.901Z,31.57
2018-07-04T07:36:45.885Z,31.48
2018-07-04T07:37:45.912Z,31.51
2018-07-04T07:38:45.885Z,31.56
2018-07-04T07:39:45.857Z,31.96
2018-07-04T07:40:45.844Z,32.08
2018-07-04T07:41:45.833Z,32.11
2018-07-04T07:42:45.856Z,32.38
2018-07-04T07:43:45.855Z,32.52
2018-07-04T07:44:45.805Z,32.37
2018-07-04T07:45:45.855Z,32.57
2018-07-04T07:46:45.785Z,32.72
2018-07-04T07:47:45.771Z,32.43
2018-07-04T07:48:45.805Z,32.33
2018-07-04T07:49:45.767Z,32.08
2018-07-04T07:50:45.742Z,31.78
2018-07-04T07:51:45.759Z,31.56
2018-07-04T07:52:45.718Z,31.29
2018-07-04T07:53:45.711Z,30.75
2018-07-04T07:54:45.715Z,30.55
2018-07-04T07:55:45.690Z,30.16
2018-07-04T07:56:45.692Z,29.82
2018-07-04T07:57:45.671Z,30.01
2018-07-04T07:58:45.699Z,30.01
2018-07-04T07:59:45.672Z,30.00
2018-07-04T08:00:45.650Z,30.23
2018-07-04T08:01:45.680Z,30.32
2018-07-04T08:02:45.644Z,30.39
2018-07-04T08:03:45.608Z,30.57
2018-07-04T08:04:45.703Z,30.58
2018-07-04T08:05:45.628Z,30.83
2018-07-04T08:06:45.602Z,31.29
2018-07-04T08:07:45.565Z,31.68
2018-07-04T08:08:45.560Z,31.99
2018-07-04T08:09:45.542Z,31.96
2018-07-04T08:10:45.603Z,32.11
2018-07-04T08:11:45.522Z,32.21
2018-07-04T08:12:45.566Z,32.11
2018-07-04T08:13:45.505Z,32.19
2018-07-04T08:14:45.494Z,31.99
2018-07-04T08:15:45.484Z,31.73
2018-07-04T08:16:45.486Z,31.58
2018-07-04T08:17:45.548Z,31.70
2018-07-04T08:18:45.515Z,32.10
2018-07-04T08:19:45.469Z,32.08
2018-07-04T08:20:45.435Z,32.26
2018-07-04T08:21:45.460Z,32.25
2018-07-04T08:22:45.418Z,32.55
2018-07-04T08:23:45.440Z,32.59
2018-07-04T08:24:45.451Z,32.33
2018-07-04T08:25:45.381Z,32.25
2018-07-04T08:26:45.376Z,32.30
2018-07-04T08:27:45.361Z,31.91
2018-07-04T08:28:45.349Z,31.50
2018-07-04T08:29:45.354Z,31.31
2018-07-04T08:30:45.328Z,31.43
2018-07-04T08:31:45.322Z,31.65
2018-07-04T08:32:45.344Z,31.70
2018-07-04T08:33:45.301Z,31.63
2018-07-04T08:34:45.321Z,31.73
2018-07-04T08:35:45.282Z,31.80
2018-07-04T08:36:45.269Z,31.76
2018-07-04T08:37:45.261Z,31.69
2018-07-04T08:38:45.282Z,31.89
2018-07-04T08:39:45.302Z,31.81
2018-07-04T08:40:45.306Z,31.66
2018-07-04T08:41:45.219Z,31.73
2018-07-04T08:42:45.209Z,31.81
2018-07-04T08:43:45.199Z,31.99
2018-07-04T08:44:45.202Z,32.30
2018-07-04T08:45:45.180Z,32.66
2018-07-04T08:46:45.303Z,32.79
2018-07-04T08:47:45.158Z,32.66
2018-07-04T08:48:45.154Z,32.74
2018-07-04T08:49:45.168Z,32.60
2018-07-04T08:50:45.162Z,32.67
2018-07-04T08:51:45.121Z,32.75
2018-07-04T08:52:45.167Z,32.77
2018-07-04T08:53:45.126Z,32.55
2018-07-04T08:54:45.088Z,32.38
2018-07-04T08:55:45.079Z,32.48
2018-07-04T08:56:45.132Z,32.44
2018-07-04T08:57:45.060Z,32.22
2018-07-04T08:58:45.054Z,32.07
2018-07-04T08:59:45.040Z,32.07
2018-07-04T09:00:45.043Z,32.13
2018-07-04T09:01:45.025Z,31.99
2018-07-04T09:02:45.117Z,31.80
2018-07-04T09:03:45.023Z,31.70
2018-07-04T09:04:45.006Z,32.00
2018-07-04T09:05:44.979Z,32.14
2018-07-04T09:06:45.010Z,31.96
2018-07-04T09:07:44.965Z,31.96
2018-07-04T09:08:45.020Z,31.89
2018-07-04T09:09:44.947Z,31.84
2018-07-04T09:10:44.930Z,31.88
2018-07-04T09:11:44.963Z,32.00
2018-07-04T09:12:44.912Z,32.21
2018-07-04T09:13:44.899Z,32.40
2018-07-04T09:14:44.896Z,32.43
2018-07-04T09:15:44.879Z,32.59
2018-07-04T09:16:44.869Z,32.72
2018-07-04T09:17:44.881Z,32.89
2018-07-04T09:18:44.874Z,33.00
2018-07-04T09:19:44.841Z,33.19
2018-07-04T09:20:44.829Z,33.31
2018-07-04T09:21:44.822Z,33.49
2018-07-04T09:22:44.819Z,33.41
2018-07-04T09:23:44.825Z,33.38
2018-07-04T09:24:44.793Z,33.49
2018-07-04T09:25:44.834Z,33.72
2018-07-04T09:26:44.770Z,33.68
2018-07-04T09:27:44.763Z,33.66
2018-07-04T09:28:44.753Z,33.73
2018-07-04T09:29:44.752Z,33.51
2018-07-04T09:30:44.731Z,33.51
2018-07-04T09:31:44.724Z,33.71
2018-07-04T09:32:44.773Z,33.68
2018-07-04T09:33:44.705Z,33.81
2018-07-04T09:34:44.709Z,33.88
2018-07-04T09:35:44.709Z,33.86
2018-07-04T09:36:44.672Z,33.88
2018-07-04T09:37:44.668Z,33.97
2018-07-04T09:38:44.655Z,33.87
2018-07-04T09:39:44.643Z,33.82
2018-07-04T09:40:44.688Z,33.44
2018-07-04T09:41:44.641Z,33.65
2018-07-04T09:42:44.616Z,33.71
2018-07-04T09:43:44.649Z,33.42
2018-07-04T09:44:44.697Z,33.49
2018-07-04T09:45:44.611Z,33.11
2018-07-04T09:46:44.576Z,32.66
2018-07-04T09:47:44.637Z,32.52
2018-07-04T09:48:44.558Z,32.29
2018-07-04T09:49:44.653Z,32.10
2018-07-04T09:50:44.539Z,31.93
2018-07-04T09:51:44.526Z,32.01
2018-07-04T09:52:44.517Z,32.28
2018-07-04T09:53:44.506Z,31.99
2018-07-04T09:54:44.514Z,31.85
2018-07-04T09:55:44.516Z,31.73
2018-07-04T09:56:44.474Z,31.78
2018-07-04T09:57:44.524Z,31.70
2018-07-04T09:58:44.573Z,31.76
2018-07-04T09:59:44.518Z,31.95
2018-07-04T10:00:44.435Z,31.88
2018-07-04T10:01:44.462Z,32.01
2018-07-04T10:02:44.417Z,32.14
2018-07-04T10:03:44.504Z,32.35
2018-07-04T10:04:44.394Z,32.40
2018-07-04T10:05:44.514Z,32.32
2018-07-04T10:06:44.374Z,32.43
2018-07-04T10:07:44.518Z,32.67
2018-07-04T10:08:44.355Z,32.84
2018-07-04T10:09:44.344Z,33.01
2018-07-04T10:10:44.377Z,33.21
2018-07-04T10:11:44.326Z,33.37
2018-07-04T10:12:44.351Z,33.44
2018-07-04T10:13:44.317Z,33.42
2018-07-04T10:14:44.297Z,33.47
2018-07-04T10:15:44.285Z,33.63
2018-07-04T10:16:44.275Z,33.50
2018-07-04T10:17:44.290Z,33.53
2018-07-04T10:18:44.268Z,33.51
2018-07-04T10:19:44.310Z,33.45
2018-07-04T10:20:44.241Z,33.51
2018-07-04T10:21:44.314Z,33.73
2018-07-04T10:22:44.280Z,33.84
2018-07-04T10:23:44.254Z,33.78
2018-07-04T10:24:44.199Z,33.60
2018-07-04T10:25:44.186Z,33.53
2018-07-04T10:26:44.181Z,33.56
2018-07-04T10:27:44.259Z,33.76
2018-07-04T10:28:44.163Z,33.86
2018-07-04T10:29:44.164Z,33.98
2018-07-04T10:30:44.144Z,34.09
2018-07-04T10:31:44.137Z,34.21
2018-07-04T10:32:44.126Z,34.15
2018-07-04T10:33:44.143Z,34.12
2018-07-04T10:34:44.130Z,34.25
2018-07-04T10:35:44.096Z,34.17
2018-07-04T10:36:44.088Z,34.32
2018-07-04T10:37:44.148Z,34.39
2018-07-04T10:38:44.069Z,34.43
2018-07-04T10:39:44.080Z,34.59
2018-07-04T10:40:44.066Z,34.62
2018-07-04T10:41:44.169Z,34.70
2018-07-04T10:42:44.140Z,34.82
2018-07-04T10:43:44.025Z,34.73
2018-07-04T10:44:44.108Z,34.80
2018-07-04T10:45:44.050Z,34.81
2018-07-04T10:46:44.021Z,34.87
2018-07-04T10:47:43.984Z,34.94
2018-07-04T10:48:43.974Z,35.06
2018-07-04T10:49:43.967Z,35.21
2018-07-04T10:50:43.972Z,35.03
2018-07-04T10:51:43.945Z,34.75
2018-07-04T10:52:43.952Z,34.75
2018-07-04T10:53:43.927Z,34.81
2018-07-04T10:54:44.006Z,34.92
2018-07-04T10:55:43.908Z,35.03
2018-07-04T10:56:43.949Z,35.18
2018-07-04T10:57:43.886Z,35.15
2018-07-04T10:58:43.879Z,35.06
2018-07-04T10:59:43.881Z,34.82
2018-07-04T11:00:43.936Z,34.69
2018-07-04T11:01:43.955Z,34.73
2018-07-04T11:02:43.837Z,34.84
2018-07-04T11:03:43.904Z,35.00
2018-07-04T11:04:43.823Z,35.06
2018-07-04T11:05:43.820Z,34.99
2018-07-04T11:06:43.818Z,35.02
2018-07-04T11:07:43.826Z,35.06
2018-07-04T11:08:43.887Z,35.16
2018-07-04T11:09:43.777Z,34.82
2018-07-04T11:10:43.850Z,34.44
2018-07-04T11:11:43.771Z,34.40
2018-07-04T11:12:43.763Z,34.39
2018-07-04T11:13:43.752Z,34.49
2018-07-04T11:14:43.728Z,34.56
2018-07-04T11:15:43.721Z,34.56
2018-07-04T11:16:43.732Z,34.80
2018-07-04T11:17:43.718Z,34.88
2018-07-04T11:18:43.692Z,35.00
2018-07-04T11:19:43.684Z,35.22
2018-07-04T11:20:43.675Z,35.26
2018-07-04T11:21:43.745Z,35.50
2018-07-04T11:22:43.698Z,35.53
2018-07-04T11:23:43.659Z,35.55
2018-07-04T11:24:43.639Z,35.43
2018-07-04T11:25:43.628Z,35.38
2018-07-04T11:26:43.619Z,35.37
2018-07-04T11:27:43.612Z,35.43
2018-07-04T11:28:43.613Z,35.31
2018-07-04T11:29:43.592Z,35.15
2018-07-04T11:30:43.583Z,35.18
2018-07-04T11:31:43.588Z,35.15
2018-07-04T11:32:43.563Z,35.14
2018-07-04T11:33:43.691Z,35.34
2018-07-04T11:34:43.607Z,35.50
2018-07-04T11:35:43.579Z,35.75
2018-07-04T11:36:43.525Z,35.78
2018-07-04T11:37:43.513Z,35.87
2018-07-04T11:38:43.524Z,35.82
2018-07-04T11:39:43.496Z,35.81
2018-07-04T11:40:43.537Z,35.59
2018-07-04T11:41:43.512Z,35.41
2018-07-04T11:42:43.467Z,35.45
2018-07-04T11:43:43.457Z,35.29
2018-07-04T11:44:43.466Z,35.34
2018-07-04T11:45:43.441Z,35.25
2018-07-04T11:46:43.433Z,35.23
2018-07-04T11:47:43.472Z,35.23
2018-07-04T11:48:43.413Z,35.19
2018-07-04T11:49:43.420Z,34.92
2018-07-04T11:50:43.399Z,34.50
2018-07-04T11:51:43.383Z,34.24
2018-07-04T11:52:43.431Z,34.12
2018-07-04T11:53:43.365Z,33.95
2018-07-04T11:54:43.433Z,33.87
2018-07-04T11:55:43.353Z,33.63
2018-07-04T11:56:43.413Z,33.47
2018-07-04T11:57:43.335Z,33.32
2018-07-04T11:58:43.423Z,33.31
2018-07-04T11:59:43.389Z,33.19
2018-07-04T12:00:43.317Z,33.18
2018-07-04T12:01:43.339Z,33.18
2018-07-04T12:02:43.279Z,33.21
2018-07-04T12:03:43.268Z,33.49
2018-07-04T12:04:43.260Z,33.81
2018-07-04T12:05:43.263Z,34.09
2018-07-04T12:06:43.241Z,34.27
2018-07-04T12:07:43.305Z,34.25
2018-07-04T12:08:43.249Z,34.13
2018-07-04T12:09:43.211Z,33.95
2018-07-04T12:10:43.268Z,33.78
2018-07-04T12:11:43.192Z,33.71
2018-07-04T12:12:43.241Z,33.68
2018-07-04T12:13:43.170Z,33.94
2018-07-04T12:14:43.176Z,34.13
2018-07-04T12:15:43.153Z,34.17
2018-07-04T12:16:43.158Z,34.30
2018-07-04T12:17:43.131Z,34.39
2018-07-04T12:18:43.122Z,34.56
2018-07-04T12:19:43.112Z,34.72
2018-07-04T12:20:43.101Z,34.78
2018-07-04T12:21:43.129Z,34.85
2018-07-04T12:22:43.086Z,35.03
2018-07-04T12:23:43.076Z,35.29
2018-07-04T12:24:43.065Z,35.48
2018-07-04T12:25:43.057Z,35.66
2018-07-04T12:26:43.207Z,35.77
2018-07-04T12:27:43.054Z,35.72
2018-07-04T12:28:43.025Z,35.82
2018-07-04T12:29:43.031Z,35.75
2018-07-04T12:30:43.122Z,35.89
2018-07-04T12:31:43.001Z,35.89
2018-07-04T12:32:42.993Z,35.97
2018-07-04T12:33:42.982Z,36.08
2018-07-04T12:34:42.972Z,36.05
2018-07-04T12:35:42.963Z,36.15
2018-07-04T12:36:42.969Z,36.20
2018-07-04T12:37:42.986Z,35.99
2018-07-04T12:38:42.935Z,36.08
2018-07-04T12:39:42.997Z,35.89
2018-07-04T12:40:42.919Z,35.74
2018-07-04T12:41:42.909Z,35.77
2018-07-04T12:42:42.921Z,35.75
2018-07-04T12:43:42.997Z,35.78
2018-07-04T12:44:42.882Z,35.68
2018-07-04T12:45:42.933Z,35.68
2018-07-04T12:46:42.862Z,35.65
2018-07-04T12:47:42.853Z,35.62
2018-07-04T12:48:42.845Z,35.77
2018-07-04T12:49:42.849Z,35.94
2018-07-04T12:50:42.827Z,35.92
2018-07-04T12:51:42.820Z,35.78
2018-07-04T12:52:42.806Z,35.72